sensor_id;sensor_type;location;lat;lon;timestamp;P1;durP1;ratioP1;P2;durP2;ratioP2
45232;SDS011;30969;51.052;17.056;2023-03-24T00:03:19;7.20;;;3.53;;
45232;SDS011;30969;51.052;17.056;2023-03-24T00:21:15;5.78;;;3.22;;
45232;SDS011;30969;51.052;17.056;2023-03-24T00:26:19;8.85;;;3.67;;
45232;SDS011;30969;51.052;17.056;2023-03-24T00:31:25;7.30;;;4.20;;
45232;SDS011;30969;51.052;17.056;2023-03-24T00:36:30;7.10;;;4.22;;
45232;SDS011;30969;51.052;17.056;2023-03-24T00:41:33;9.05;;;3.95;;
45232;SDS011;30969;51.052;17.056;2023-03-24T00:46:37;5.75;;;3.97;;
45232;SDS011;30969;51.052;17.056;2023-03-24T00:51:42;7.57;;;5.18;;
45232;SDS011;30969;51.052;17.056;2023-03-24T00:56:46;8.38;;;4.80;;
45232;SDS011;30969;51.052;17.056;2023-03-24T01:01:50;8.10;;;4.40;;
45232;SDS011;30969;51.052;17.056;2023-03-24T01:06:55;6.75;;;4.38;;
45232;SDS011;30969;51.052;17.056;2023-03-24T01:11:59;6.15;;;3.67;;
45232;SDS011;30969;51.052;17.056;2023-03-24T01:17:03;8.50;;;4.07;;
45232;SDS011;30969;51.052;17.056;2023-03-24T01:22:10;6.10;;;3.75;;
45232;SDS011;30969;51.052;17.056;2023-03-24T01:27:13;8.73;;;4.00;;
45232;SDS011;30969;51.052;17.056;2023-03-24T01:32:17;6.00;;;3.70;;
45232;SDS011;30969;51.052;17.056;2023-03-24T01:37:22;6.90;;;3.17;;
45232;SDS011;30969;51.052;17.056;2023-03-24T01:42:26;5.47;;;3.28;;
45232;SDS011;30969;51.052;17.056;2023-03-24T01:47:30;7.60;;;3.70;;
45232;SDS011;30969;51.052;17.056;2023-03-24T01:52:37;5.63;;;3.70;;
45232;SDS011;30969;51.052;17.056;2023-03-24T01:57:43;6.10;;;3.47;;
45232;SDS011;30969;51.052;17.056;2023-03-24T02:02:49;4.88;;;3.28;;
45232;SDS011;30969;51.052;17.056;2023-03-24T02:08:02;5.68;;;2.55;;
45232;SDS011;30969;51.052;17.056;2023-03-24T02:13:09;5.57;;;2.83;;
45232;SDS011;30969;51.052;17.056;2023-03-24T02:18:15;5.47;;;3.22;;
45232;SDS011;30969;51.052;17.056;2023-03-24T02:23:37;5.50;;;3.13;;
45232;SDS011;30969;51.052;17.056;2023-03-24T02:28:59;5.18;;;3.40;;
45232;SDS011;30969;51.052;17.056;2023-03-24T02:39:58;5.55;;;3.50;;
45232;SDS011;30969;51.052;17.056;2023-03-24T02:45:16;4.55;;;3.17;;
45232;SDS011;30969;51.052;17.056;2023-03-24T02:50:27;5.28;;;3.00;;
45232;SDS011;30969;51.052;17.056;2023-03-24T02:55:35;4.28;;;3.15;;
45232;SDS011;30969;51.052;17.056;2023-03-24T03:00:46;6.85;;;3.20;;
45232;SDS011;30969;51.052;17.056;2023-03-24T03:06:01;5.03;;;2.45;;
45232;SDS011;30969;51.052;17.056;2023-03-24T03:11:11;11.30;;;2.95;;
45232;SDS011;30969;51.052;17.056;2023-03-24T03:16:17;5.18;;;3.45;;
45232;SDS011;30969;51.052;17.056;2023-03-24T03:21:27;7.28;;;2.92;;
45232;SDS011;30969;51.052;17.056;2023-03-24T03:26:34;3.95;;;2.72;;
45232;SDS011;30969;51.052;17.056;2023-03-24T03:31:39;5.13;;;3.20;;
45232;SDS011;30969;51.052;17.056;2023-03-24T03:36:46;5.35;;;2.92;;
45232;SDS011;30969;51.052;17.056;2023-03-24T03:41:57;5.35;;;3.10;;
45232;SDS011;30969;51.052;17.056;2023-03-24T03:47:01;3.92;;;2.88;;
45232;SDS011;30969;51.052;17.056;2023-03-24T03:52:04;4.47;;;3.10;;
45232;SDS011;30969;51.052;17.056;2023-03-24T03:57:10;5.07;;;3.13;;
45232;SDS011;30969;51.052;17.056;2023-03-24T04:02:20;5.40;;;2.88;;
45232;SDS011;30969;51.052;17.056;2023-03-24T04:07:31;4.18;;;3.15;;
45232;SDS011;30969;51.052;17.056;2023-03-24T04:12:48;4.82;;;2.85;;
45232;SDS011;30969;51.052;17.056;2023-03-24T04:18:09;4.55;;;3.20;;
45232;SDS011;30969;51.052;17.056;2023-03-24T04:23:29;5.35;;;3.10;;
45232;SDS011;30969;51.052;17.056;2023-03-24T04:28:44;5.45;;;3.13;;
45232;SDS011;30969;51.052;17.056;2023-03-24T04:33:59;5.22;;;3.08;;
45232;SDS011;30969;51.052;17.056;2023-03-24T04:39:07;4.15;;;2.85;;
45232;SDS011;30969;51.052;17.056;2023-03-24T04:44:15;5.78;;;3.05;;
45232;SDS011;30969;51.052;17.056;2023-03-24T04:49:22;7.28;;;2.85;;
45232;SDS011;30969;51.052;17.056;2023-03-24T04:54:28;6.20;;;3.10;;
45232;SDS011;30969;51.052;17.056;2023-03-24T04:59:33;8.82;;;3.20;;
45232;SDS011;30969;51.052;17.056;2023-03-24T05:04:36;4.90;;;2.90;;
45232;SDS011;30969;51.052;17.056;2023-03-24T05:09:40;4.38;;;2.83;;
45232;SDS011;30969;51.052;17.056;2023-03-24T05:14:45;3.55;;;2.58;;
45232;SDS011;30969;51.052;17.056;2023-03-24T05:19:49;3.90;;;2.80;;
45232;SDS011;30969;51.052;17.056;2023-03-24T05:24:52;4.10;;;2.20;;
45232;SDS011;30969;51.052;17.056;2023-03-24T05:29:57;5.07;;;2.50;;
45232;SDS011;30969;51.052;17.056;2023-03-24T05:35:01;5.60;;;2.70;;
45232;SDS011;30969;51.052;17.056;2023-03-24T05:40:05;7.68;;;2.78;;
45232;SDS011;30969;51.052;17.056;2023-03-24T05:45:11;4.10;;;2.72;;
45232;SDS011;30969;51.052;17.056;2023-03-24T05:50:15;4.78;;;2.47;;
45232;SDS011;30969;51.052;17.056;2023-03-24T05:55:19;4.70;;;2.70;;
45232;SDS011;30969;51.052;17.056;2023-03-24T06:00:25;4.13;;;2.97;;
45232;SDS011;30969;51.052;17.056;2023-03-24T06:05:31;3.30;;;2.40;;
45232;SDS011;30969;51.052;17.056;2023-03-24T06:10:35;5.45;;;3.15;;
45232;SDS011;30969;51.052;17.056;2023-03-24T06:15:39;4.55;;;2.63;;
45232;SDS011;30969;51.052;17.056;2023-03-24T06:20:49;4.30;;;2.42;;
45232;SDS011;30969;51.052;17.056;2023-03-24T06:25:57;5.57;;;2.47;;
45232;SDS011;30969;51.052;17.056;2023-03-24T06:31:04;4.20;;;3.00;;
45232;SDS011;30969;51.052;17.056;2023-03-24T06:36:15;3.58;;;2.60;;
45232;SDS011;30969;51.052;17.056;2023-03-24T06:41:20;4.95;;;2.78;;
45232;SDS011;30969;51.052;17.056;2023-03-24T06:46:25;4.95;;;3.20;;
45232;SDS011;30969;51.052;17.056;2023-03-24T06:51:28;3.58;;;2.60;;
45232;SDS011;30969;51.052;17.056;2023-03-24T06:56:32;4.72;;;2.90;;
45232;SDS011;30969;51.052;17.056;2023-03-24T07:01:37;7.82;;;3.33;;
45232;SDS011;30969;51.052;17.056;2023-03-24T07:06:40;4.97;;;2.80;;
45232;SDS011;30969;51.052;17.056;2023-03-24T07:12:06;6.03;;;3.28;;
45232;SDS011;30969;51.052;17.056;2023-03-24T07:17:11;7.05;;;3.30;;
45232;SDS011;30969;51.052;17.056;2023-03-24T07:22:15;5.85;;;4.03;;
45232;SDS011;30969;51.052;17.056;2023-03-24T07:27:19;4.93;;;2.85;;
45232;SDS011;30969;51.052;17.056;2023-03-24T07:32:24;4.80;;;3.03;;
45232;SDS011;30969;51.052;17.056;2023-03-24T07:37:29;5.05;;;2.83;;
45232;SDS011;30969;51.052;17.056;2023-03-24T07:42:33;4.40;;;2.95;;
45232;SDS011;30969;51.052;17.056;2023-03-24T07:47:40;7.30;;;4.40;;
45232;SDS011;30969;51.052;17.056;2023-03-24T07:52:46;4.38;;;3.08;;
45232;SDS011;30969;51.052;17.056;2023-03-24T07:57:51;5.32;;;3.00;;
45232;SDS011;30969;51.052;17.056;2023-03-24T08:02:56;5.53;;;3.47;;
45232;SDS011;30969;51.052;17.056;2023-03-24T08:08:01;6.30;;;3.85;;
45232;SDS011;30969;51.052;17.056;2023-03-24T08:13:07;6.82;;;3.42;;
45232;SDS011;30969;51.052;17.056;2023-03-24T08:18:13;7.55;;;5.05;;
45232;SDS011;30969;51.052;17.056;2023-03-24T08:23:19;5.65;;;3.00;;
45232;SDS011;30969;51.052;17.056;2023-03-24T08:42:31;5.03;;;3.05;;
45232;SDS011;30969;51.052;17.056;2023-03-24T08:47:34;5.75;;;2.95;;
45232;SDS011;30969;51.052;17.056;2023-03-24T08:52:37;4.32;;;2.70;;
45232;SDS011;30969;51.052;17.056;2023-03-24T08:57:44;5.85;;;2.90;;
45232;SDS011;30969;51.052;17.056;2023-03-24T09:02:48;3.88;;;2.65;;
45232;SDS011;30969;51.052;17.056;2023-03-24T09:13:32;4.45;;;2.60;;
45232;SDS011;30969;51.052;17.056;2023-03-24T09:18:35;3.83;;;2.70;;
45232;SDS011;30969;51.052;17.056;2023-03-24T09:23:39;4.25;;;2.92;;
45232;SDS011;30969;51.052;17.056;2023-03-24T09:28:44;5.82;;;2.92;;
45232;SDS011;30969;51.052;17.056;2023-03-24T09:33:48;5.43;;;3.08;;
45232;SDS011;30969;51.052;17.056;2023-03-24T09:38:52;5.00;;;2.70;;
45232;SDS011;30969;51.052;17.056;2023-03-24T09:43:57;3.72;;;1.95;;
45232;SDS011;30969;51.052;17.056;2023-03-24T09:49:05;2.58;;;1.40;;
45232;SDS011;30969;51.052;17.056;2023-03-24T09:54:19;2.95;;;1.88;;
45232;SDS011;30969;51.052;17.056;2023-03-24T09:59:31;2.50;;;1.83;;
45232;SDS011;30969;51.052;17.056;2023-03-24T10:04:37;4.82;;;1.80;;
45232;SDS011;30969;51.052;17.056;2023-03-24T10:09:41;3.85;;;2.30;;
45232;SDS011;30969;51.052;17.056;2023-03-24T10:14:54;3.25;;;1.95;;
45232;SDS011;30969;51.052;17.056;2023-03-24T10:20:10;2.75;;;1.90;;
45232;SDS011;30969;51.052;17.056;2023-03-24T10:25:22;4.22;;;2.13;;
45232;SDS011;30969;51.052;17.056;2023-03-24T10:30:33;7.60;;;2.50;;
45232;SDS011;30969;51.052;17.056;2023-03-24T10:35:39;2.97;;;2.10;;
45232;SDS011;30969;51.052;17.056;2023-03-24T10:40:47;3.28;;;1.75;;
45232;SDS011;30969;51.052;17.056;2023-03-24T10:45:52;3.65;;;2.08;;
45232;SDS011;30969;51.052;17.056;2023-03-24T10:50:59;5.15;;;2.22;;
45232;SDS011;30969;51.052;17.056;2023-03-24T10:56:03;2.92;;;1.90;;
45232;SDS011;30969;51.052;17.056;2023-03-24T11:01:09;2.92;;;1.90;;
45232;SDS011;30969;51.052;17.056;2023-03-24T11:06:25;2.33;;;1.73;;
45232;SDS011;30969;51.052;17.056;2023-03-24T11:11:29;1.75;;;1.42;;
45232;SDS011;30969;51.052;17.056;2023-03-24T11:16:36;4.80;;;2.00;;
45232;SDS011;30969;51.052;17.056;2023-03-24T11:21:44;3.90;;;2.03;;
45232;SDS011;30969;51.052;17.056;2023-03-24T11:26:51;2.70;;;1.73;;
45232;SDS011;30969;51.052;17.056;2023-03-24T11:32:01;4.18;;;2.30;;
45232;SDS011;30969;51.052;17.056;2023-03-24T11:37:13;2.92;;;2.00;;
45232;SDS011;30969;51.052;17.056;2023-03-24T11:42:25;3.95;;;2.20;;
45232;SDS011;30969;51.052;17.056;2023-03-24T11:47:31;2.45;;;1.55;;
45232;SDS011;30969;51.052;17.056;2023-03-24T11:52:36;4.07;;;1.88;;
45232;SDS011;30969;51.052;17.056;2023-03-24T11:57:47;2.13;;;1.77;;
45232;SDS011;30969;51.052;17.056;2023-03-24T12:08:36;5.55;;;2.08;;
45232;SDS011;30969;51.052;17.056;2023-03-24T12:13:49;5.15;;;2.13;;
45232;SDS011;30969;51.052;17.056;2023-03-24T12:18:57;5.13;;;2.25;;
45232;SDS011;30969;51.052;17.056;2023-03-24T12:24:18;5.65;;;2.33;;
45232;SDS011;30969;51.052;17.056;2023-03-24T12:29:33;5.28;;;2.40;;
45232;SDS011;30969;51.052;17.056;2023-03-24T12:34:55;3.00;;;2.00;;
45232;SDS011;30969;51.052;17.056;2023-03-24T12:40:29;3.85;;;2.63;;
45232;SDS011;30969;51.052;17.056;2023-03-24T12:45:49;3.08;;;2.40;;
45232;SDS011;30969;51.052;17.056;2023-03-24T12:51:00;4.85;;;2.53;;
45232;SDS011;30969;51.052;17.056;2023-03-24T12:56:13;5.38;;;2.58;;
45232;SDS011;30969;51.052;17.056;2023-03-24T13:01:21;5.55;;;2.55;;
45232;SDS011;30969;51.052;17.056;2023-03-24T13:06:33;4.57;;;3.25;;
45232;SDS011;30969;51.052;17.056;2023-03-24T13:11:45;3.65;;;2.83;;
45232;SDS011;30969;51.052;17.056;2023-03-24T13:16:55;6.20;;;1.83;;
45232;SDS011;30969;51.052;17.056;2023-03-24T13:22:09;4.40;;;2.70;;
45232;SDS011;30969;51.052;17.056;2023-03-24T13:27:18;5.18;;;2.55;;
45232;SDS011;30969;51.052;17.056;2023-03-24T13:51:53;3.50;;;2.30;;
45232;SDS011;30969;51.052;17.056;2023-03-24T13:57:00;4.35;;;2.38;;
45232;SDS011;30969;51.052;17.056;2023-03-24T17:46:34;4.68;;;3.00;;
45232;SDS011;30969;51.052;17.056;2023-03-24T17:51:41;5.07;;;2.78;;
45232;SDS011;30969;51.052;17.056;2023-03-24T17:56:47;2.47;;;1.60;;
45232;SDS011;30969;51.052;17.056;2023-03-24T18:01:52;5.28;;;1.58;;
45232;SDS011;30969;51.052;17.056;2023-03-24T18:06:55;2.67;;;1.63;;
45232;SDS011;30969;51.052;17.056;2023-03-24T18:12:00;8.95;;;2.20;;
45232;SDS011;30969;51.052;17.056;2023-03-24T18:17:05;4.18;;;1.73;;
45232;SDS011;30969;51.052;17.056;2023-03-24T18:22:10;2.85;;;2.10;;
45232;SDS011;30969;51.052;17.056;2023-03-24T18:27:14;2.75;;;1.75;;
45232;SDS011;30969;51.052;17.056;2023-03-24T18:32:20;4.85;;;2.50;;
45232;SDS011;30969;51.052;17.056;2023-03-24T18:37:25;4.28;;;1.58;;
45232;SDS011;30969;51.052;17.056;2023-03-24T18:42:29;1.92;;;1.08;;
45232;SDS011;30969;51.052;17.056;2023-03-24T18:47:34;2.92;;;1.40;;
45232;SDS011;30969;51.052;17.056;2023-03-24T18:52:39;2.45;;;1.40;;
45232;SDS011;30969;51.052;17.056;2023-03-24T18:57:42;3.05;;;1.42;;
45232;SDS011;30969;51.052;17.056;2023-03-24T19:02:48;3.78;;;2.00;;
45232;SDS011;30969;51.052;17.056;2023-03-24T19:07:53;3.25;;;1.75;;
45232;SDS011;30969;51.052;17.056;2023-03-24T19:12:57;3.83;;;2.00;;
45232;SDS011;30969;51.052;17.056;2023-03-24T19:18:02;4.72;;;2.58;;
45232;SDS011;30969;51.052;17.056;2023-03-24T19:23:06;4.72;;;3.15;;
45232;SDS011;30969;51.052;17.056;2023-03-24T19:28:09;6.55;;;2.60;;
45232;SDS011;30969;51.052;17.056;2023-03-24T19:33:17;5.35;;;2.80;;
45232;SDS011;30969;51.052;17.056;2023-03-24T19:38:22;5.45;;;2.88;;
45232;SDS011;30969;51.052;17.056;2023-03-24T19:43:25;7.85;;;3.28;;
45232;SDS011;30969;51.052;17.056;2023-03-24T19:48:30;5.05;;;2.72;;
45232;SDS011;30969;51.052;17.056;2023-03-24T19:53:34;4.72;;;2.75;;
45232;SDS011;30969;51.052;17.056;2023-03-24T19:58:38;3.58;;;2.50;;
45232;SDS011;30969;51.052;17.056;2023-03-24T20:03:43;7.30;;;4.13;;
45232;SDS011;30969;51.052;17.056;2023-03-24T20:08:50;8.18;;;4.95;;
45232;SDS011;30969;51.052;17.056;2023-03-24T20:13:54;7.32;;;4.18;;
45232;SDS011;30969;51.052;17.056;2023-03-24T20:18:59;6.63;;;4.68;;
45232;SDS011;30969;51.052;17.056;2023-03-24T20:24:03;7.38;;;4.38;;
45232;SDS011;30969;51.052;17.056;2023-03-24T20:29:06;6.95;;;4.88;;
45232;SDS011;30969;51.052;17.056;2023-03-24T20:34:11;7.10;;;4.43;;
45232;SDS011;30969;51.052;17.056;2023-03-24T20:39:15;8.15;;;5.10;;
45232;SDS011;30969;51.052;17.056;2023-03-24T20:44:19;11.43;;;6.03;;
45232;SDS011;30969;51.052;17.056;2023-03-24T20:49:24;7.47;;;4.80;;
45232;SDS011;30969;51.052;17.056;2023-03-24T20:54:28;10.63;;;5.47;;
45232;SDS011;30969;51.052;17.056;2023-03-24T20:59:32;7.10;;;4.65;;
45232;SDS011;30969;51.052;17.056;2023-03-24T21:04:37;8.05;;;4.43;;
45232;SDS011;30969;51.052;17.056;2023-03-24T21:09:41;8.18;;;4.88;;
45232;SDS011;30969;51.052;17.056;2023-03-24T21:14:44;7.40;;;4.68;;
45232;SDS011;30969;51.052;17.056;2023-03-24T21:19:49;7.30;;;3.65;;
45232;SDS011;30969;51.052;17.056;2023-03-24T21:24:55;6.32;;;3.58;;
45232;SDS011;30969;51.052;17.056;2023-03-24T21:30:00;6.55;;;3.50;;
45232;SDS011;30969;51.052;17.056;2023-03-24T21:35:05;6.15;;;3.00;;
45232;SDS011;30969;51.052;17.056;2023-03-24T21:40:10;9.57;;;3.17;;
45232;SDS011;30969;51.052;17.056;2023-03-24T21:45:15;4.25;;;2.97;;
45232;SDS011;30969;51.052;17.056;2023-03-24T21:50:21;6.13;;;3.38;;
45232;SDS011;30969;51.052;17.056;2023-03-24T21:55:24;5.32;;;2.67;;
45232;SDS011;30969;51.052;17.056;2023-03-24T22:00:28;4.22;;;2.58;;
45232;SDS011;30969;51.052;17.056;2023-03-24T22:05:38;4.68;;;2.80;;
45232;SDS011;30969;51.052;17.056;2023-03-24T22:10:42;3.17;;;2.00;;
45232;SDS011;30969;51.052;17.056;2023-03-24T22:15:50;5.70;;;2.55;;
45232;SDS011;30969;51.052;17.056;2023-03-24T22:20:58;4.35;;;2.38;;
45232;SDS011;30969;51.052;17.056;2023-03-24T22:26:05;4.13;;;2.42;;
45232;SDS011;30969;51.052;17.056;2023-03-24T22:31:10;4.25;;;2.25;;
45232;SDS011;30969;51.052;17.056;2023-03-24T22:36:17;5.68;;;2.35;;
45232;SDS011;30969;51.052;17.056;2023-03-24T22:41:20;5.35;;;2.45;;
45232;SDS011;30969;51.052;17.056;2023-03-24T22:46:24;4.10;;;2.00;;
45232;SDS011;30969;51.052;17.056;2023-03-24T22:51:29;5.72;;;2.88;;
45232;SDS011;30969;51.052;17.056;2023-03-24T22:56:33;4.45;;;2.55;;
45232;SDS011;30969;51.052;17.056;2023-03-24T23:01:37;6.20;;;2.78;;
45232;SDS011;30969;51.052;17.056;2023-03-24T23:06:42;4.43;;;2.13;;
45232;SDS011;30969;51.052;17.056;2023-03-24T23:11:46;6.32;;;2.58;;
45232;SDS011;30969;51.052;17.056;2023-03-24T23:16:49;6.03;;;2.50;;
45232;SDS011;30969;51.052;17.056;2023-03-24T23:21:56;3.13;;;2.20;;
45232;SDS011;30969;51.052;17.056;2023-03-24T23:27:00;3.75;;;2.30;;
45232;SDS011;30969;51.052;17.056;2023-03-24T23:32:05;6.00;;;2.33;;
45232;SDS011;30969;51.052;17.056;2023-03-24T23:37:10;5.50;;;2.60;;
45232;SDS011;30969;51.052;17.056;2023-03-24T23:42:14;4.97;;;3.00;;
45232;SDS011;30969;51.052;17.056;2023-03-24T23:47:18;5.35;;;2.60;;
45232;SDS011;30969;51.052;17.056;2023-03-24T23:52:23;4.57;;;2.47;;
45232;SDS011;30969;51.052;17.056;2023-03-24T23:57:27;8.30;;;3.15;;
